sensor_id;sensor_type;location;lat;lon;timestamp;temperature;humidity
50989;DHT22;37008;52.210;21.112;2022-11-04T00:01:58;3.00;99.90
50989;DHT22;37008;52.210;21.112;2022-11-04T00:04:25;2.90;99.90
50989;DHT22;37008;52.210;21.112;2022-11-04T00:06:52;2.90;99.90
50989;DHT22;37008;52.210;21.112;2022-11-04T00:09:20;2.90;99.90
50989;DHT22;37008;52.210;21.112;2022-11-04T00:11:46;2.90;99.90
50989;DHT22;37008;52.210;21.112;2022-11-04T00:14:31;2.90;99.90
50989;DHT22;37008;52.210;21.112;2022-11-04T00:16:58;2.90;99.90
50989;DHT22;37008;52.210;21.112;2022-11-04T00:19:42;2.90;99.90
50989;DHT22;37008;52.210;21.112;2022-11-04T00:22:27;2.90;99.90
50989;DHT22;37008;52.210;21.112;2022-11-04T00:25:11;2.90;99.90
50989;DHT22;37008;52.210;21.112;2022-11-04T00:28:25;2.90;99.90
50989;DHT22;37008;52.210;21.112;2022-11-04T00:31:10;2.90;99.90
50989;DHT22;37008;52.210;21.112;2022-11-04T00:33:56;2.90;99.90
50989;DHT22;37008;52.210;21.112;2022-11-04T00:36:23;2.90;99.90
50989;DHT22;37008;52.210;21.112;2022-11-04T00:38:49;3.00;99.90
50989;DHT22;37008;52.210;21.112;2022-11-04T00:41:15;3.00;99.90
50989;DHT22;37008;52.210;21.112;2022-11-04T00:44:03;3.00;99.90
50989;DHT22;37008;52.210;21.112;2022-11-04T00:46:31;3.00;99.90
50989;DHT22;37008;52.210;21.112;2022-11-04T00:48:57;3.00;99.90
50989;DHT22;37008;52.210;21.112;2022-11-04T00:51:23;3.10;99.90
50989;DHT22;37008;52.210;21.112;2022-11-04T00:53:50;3.10;99.90
50989;DHT22;37008;52.210;21.112;2022-11-04T00:56:15;3.10;99.90
50989;DHT22;37008;52.210;21.112;2022-11-04T00:58:41;3.10;99.90
50989;DHT22;37008;52.210;21.112;2022-11-04T01:01:11;3.10;99.90
50989;DHT22;37008;52.210;21.112;2022-11-04T01:03:38;3.10;99.90
50989;DHT22;37008;52.210;21.112;2022-11-04T01:06:04;3.10;99.90
50989;DHT22;37008;52.210;21.112;2022-11-04T01:08:30;3.20;99.90
50989;DHT22;37008;52.210;21.112;2022-11-04T01:10:56;3.20;99.90
50989;DHT22;37008;52.210;21.112;2022-11-04T01:13:25;3.20;99.90
50989;DHT22;37008;52.210;21.112;2022-11-04T01:15:50;3.20;99.90
50989;DHT22;37008;52.210;21.112;2022-11-04T01:18:16;3.20;99.90
50989;DHT22;37008;52.210;21.112;2022-11-04T01:20:41;3.30;99.90
50989;DHT22;37008;52.210;21.112;2022-11-04T01:23:07;3.30;99.90
50989;DHT22;37008;52.210;21.112;2022-11-04T01:25:32;3.30;99.90
50989;DHT22;37008;52.210;21.112;2022-11-04T01:27:58;3.40;99.90
50989;DHT22;37008;52.210;21.112;2022-11-04T01:30:23;3.50;99.90
50989;DHT22;37008;52.210;21.112;2022-11-04T01:32:50;3.60;99.90
50989;DHT22;37008;52.210;21.112;2022-11-04T01:35:15;3.60;99.90
50989;DHT22;37008;52.210;21.112;2022-11-04T01:37:41;3.70;99.90
50989;DHT22;37008;52.210;21.112;2022-11-04T01:40:07;3.80;99.90
50989;DHT22;37008;52.210;21.112;2022-11-04T01:42:33;3.80;99.90
50989;DHT22;37008;52.210;21.112;2022-11-04T01:44:59;3.90;99.90
50989;DHT22;37008;52.210;21.112;2022-11-04T01:49:59;4.00;99.90
50989;DHT22;37008;52.210;21.112;2022-11-04T01:52:51;4.10;99.90
50989;DHT22;37008;52.210;21.112;2022-11-04T01:55:24;4.10;99.90
50989;DHT22;37008;52.210;21.112;2022-11-04T01:57:53;4.20;99.90
50989;DHT22;37008;52.210;21.112;2022-11-04T02:00:20;4.20;99.90
50989;DHT22;37008;52.210;21.112;2022-11-04T02:05:15;4.40;99.90
50989;DHT22;37008;52.210;21.112;2022-11-04T02:07:42;4.50;99.90
50989;DHT22;37008;52.210;21.112;2022-11-04T02:10:08;4.50;99.90
50989;DHT22;37008;52.210;21.112;2022-11-04T02:12:34;4.60;99.90
50989;DHT22;37008;52.210;21.112;2022-11-04T02:15:17;4.70;99.90
50989;DHT22;37008;52.210;21.112;2022-11-04T02:25:55;4.80;99.90
50989;DHT22;37008;52.210;21.112;2022-11-04T02:32:21;4.90;99.90
50989;DHT22;37008;52.210;21.112;2022-11-04T02:34:54;5.00;99.90
50989;DHT22;37008;52.210;21.112;2022-11-04T02:37:27;5.00;99.90
50989;DHT22;37008;52.210;21.112;2022-11-04T02:42:29;5.10;99.90
50989;DHT22;37008;52.210;21.112;2022-11-04T02:48:08;5.10;99.90
50989;DHT22;37008;52.210;21.112;2022-11-04T02:50:51;5.10;99.90
50989;DHT22;37008;52.210;21.112;2022-11-04T02:53:44;5.10;99.90
50989;DHT22;37008;52.210;21.112;2022-11-04T02:56:13;5.10;99.90
50989;DHT22;37008;52.210;21.112;2022-11-04T02:58:52;5.10;99.90
50989;DHT22;37008;52.210;21.112;2022-11-04T03:01:20;5.10;99.90
50989;DHT22;37008;52.210;21.112;2022-11-04T03:03:49;5.00;99.90
50989;DHT22;37008;52.210;21.112;2022-11-04T03:06:20;5.00;99.90
50989;DHT22;37008;52.210;21.112;2022-11-04T03:08:51;5.00;99.90
50989;DHT22;37008;52.210;21.112;2022-11-04T03:11:20;5.00;99.90
50989;DHT22;37008;52.210;21.112;2022-11-04T03:22:10;5.10;99.90
50989;DHT22;37008;52.210;21.112;2022-11-04T03:24:36;5.10;99.90
50989;DHT22;37008;52.210;21.112;2022-11-04T03:27:11;5.20;99.90
50989;DHT22;37008;52.210;21.112;2022-11-04T03:34:53;5.30;99.90
50989;DHT22;37008;52.210;21.112;2022-11-04T03:37:19;5.30;99.90
50989;DHT22;37008;52.210;21.112;2022-11-04T03:39:44;5.40;99.90
50989;DHT22;37008;52.210;21.112;2022-11-04T03:42:11;5.40;99.90
50989;DHT22;37008;52.210;21.112;2022-11-04T03:44:55;5.40;99.90
50989;DHT22;37008;52.210;21.112;2022-11-04T03:47:26;5.40;99.90
50989;DHT22;37008;52.210;21.112;2022-11-04T03:49:59;5.40;99.90
50989;DHT22;37008;52.210;21.112;2022-11-04T03:52:27;5.40;99.90
50989;DHT22;37008;52.210;21.112;2022-11-04T03:54:53;5.50;99.90
50989;DHT22;37008;52.210;21.112;2022-11-04T03:57:35;5.50;99.90
50989;DHT22;37008;52.210;21.112;2022-11-04T04:00:13;5.50;99.90
50989;DHT22;37008;52.210;21.112;2022-11-04T04:05:30;5.60;99.90
50989;DHT22;37008;52.210;21.112;2022-11-04T04:08:11;5.60;99.90
50989;DHT22;37008;52.210;21.112;2022-11-04T04:10:40;5.70;99.90
50989;DHT22;37008;52.210;21.112;2022-11-04T04:13:16;5.70;99.90
50989;DHT22;37008;52.210;21.112;2022-11-04T04:16:03;5.70;99.90
50989;DHT22;37008;52.210;21.112;2022-11-04T04:18:42;5.80;99.90
50989;DHT22;37008;52.210;21.112;2022-11-04T04:21:14;5.80;99.90
50989;DHT22;37008;52.210;21.112;2022-11-04T04:23:41;5.80;99.90
50989;DHT22;37008;52.210;21.112;2022-11-04T04:26:28;5.90;99.90
50989;DHT22;37008;52.210;21.112;2022-11-04T04:29:13;5.90;99.90
50989;DHT22;37008;52.210;21.112;2022-11-04T04:31:40;5.90;99.90
50989;DHT22;37008;52.210;21.112;2022-11-04T04:34:26;5.90;99.90
50989;DHT22;37008;52.210;21.112;2022-11-04T04:37:02;6.00;99.90
50989;DHT22;37008;52.210;21.112;2022-11-04T04:39:37;6.00;99.90
50989;DHT22;37008;52.210;21.112;2022-11-04T04:42:23;6.10;99.90
50989;DHT22;37008;52.210;21.112;2022-11-04T04:45:08;6.10;99.90
50989;DHT22;37008;52.210;21.112;2022-11-04T04:47:44;6.10;99.90
50989;DHT22;37008;52.210;21.112;2022-11-04T04:50:14;6.10;99.90
50989;DHT22;37008;52.210;21.112;2022-11-04T04:52:43;6.20;99.90
50989;DHT22;37008;52.210;21.112;2022-11-04T04:55:10;6.20;99.90
50989;DHT22;37008;52.210;21.112;2022-11-04T04:57:36;6.20;99.90
50989;DHT22;37008;52.210;21.112;2022-11-04T05:00:05;6.20;99.90
50989;DHT22;37008;52.210;21.112;2022-11-04T05:02:31;6.30;99.90
50989;DHT22;37008;52.210;21.112;2022-11-04T05:04:57;6.30;99.90
50989;DHT22;37008;52.210;21.112;2022-11-04T05:07:24;6.30;99.90
50989;DHT22;37008;52.210;21.112;2022-11-04T05:09:49;6.30;99.90
50989;DHT22;37008;52.210;21.112;2022-11-04T05:12:15;6.30;99.90
50989;DHT22;37008;52.210;21.112;2022-11-04T05:14:41;6.30;99.90
50989;DHT22;37008;52.210;21.112;2022-11-04T05:17:06;6.30;99.90
50989;DHT22;37008;52.210;21.112;2022-11-04T05:19:32;6.30;99.90
50989;DHT22;37008;52.210;21.112;2022-11-04T05:21:58;6.30;99.90
50989;DHT22;37008;52.210;21.112;2022-11-04T05:24:23;6.30;99.90
50989;DHT22;37008;52.210;21.112;2022-11-04T05:26:49;6.40;99.90
50989;DHT22;37008;52.210;21.112;2022-11-04T05:29:15;6.30;99.90
50989;DHT22;37008;52.210;21.112;2022-11-04T05:31:41;6.40;99.90
50989;DHT22;37008;52.210;21.112;2022-11-04T05:34:09;6.40;99.90
50989;DHT22;37008;52.210;21.112;2022-11-04T05:36:35;6.40;99.90
50989;DHT22;37008;52.210;21.112;2022-11-04T05:39:01;6.50;99.90
50989;DHT22;37008;52.210;21.112;2022-11-04T05:41:27;6.40;99.90
50989;DHT22;37008;52.210;21.112;2022-11-04T05:43:54;6.40;99.90
50989;DHT22;37008;52.210;21.112;2022-11-04T05:46:21;6.40;99.90
50989;DHT22;37008;52.210;21.112;2022-11-04T05:48:46;6.40;99.90
50989;DHT22;37008;52.210;21.112;2022-11-04T05:51:13;6.40;99.90
50989;DHT22;37008;52.210;21.112;2022-11-04T05:53:39;6.50;99.90
50989;DHT22;37008;52.210;21.112;2022-11-04T05:56:05;6.50;99.90
50989;DHT22;37008;52.210;21.112;2022-11-04T05:58:31;6.50;99.90
50989;DHT22;37008;52.210;21.112;2022-11-04T06:01:23;6.50;99.90
50989;DHT22;37008;52.210;21.112;2022-11-04T06:03:50;6.50;99.90
50989;DHT22;37008;52.210;21.112;2022-11-04T06:06:16;6.60;99.90
50989;DHT22;37008;52.210;21.112;2022-11-04T06:08:42;6.60;99.90
50989;DHT22;37008;52.210;21.112;2022-11-04T06:11:07;6.60;99.90
50989;DHT22;37008;52.210;21.112;2022-11-04T06:13:33;6.60;99.90
50989;DHT22;37008;52.210;21.112;2022-11-04T06:15:59;6.70;99.90
50989;DHT22;37008;52.210;21.112;2022-11-04T06:18:24;6.70;99.90
50989;DHT22;37008;52.210;21.112;2022-11-04T06:21:04;6.70;99.90
50989;DHT22;37008;52.210;21.112;2022-11-04T06:23:30;6.80;99.90
50989;DHT22;37008;52.210;21.112;2022-11-04T06:25:55;6.90;99.90
50989;DHT22;37008;52.210;21.112;2022-11-04T06:28:21;6.90;99.90
50989;DHT22;37008;52.210;21.112;2022-11-04T06:30:47;6.90;99.90
50989;DHT22;37008;52.210;21.112;2022-11-04T06:33:12;6.90;99.90
50989;DHT22;37008;52.210;21.112;2022-11-04T06:35:38;6.90;99.90
50989;DHT22;37008;52.210;21.112;2022-11-04T06:38:03;7.00;99.90
50989;DHT22;37008;52.210;21.112;2022-11-04T06:40:29;7.00;99.90
50989;DHT22;37008;52.210;21.112;2022-11-04T06:42:55;7.10;99.90
50989;DHT22;37008;52.210;21.112;2022-11-04T06:45:21;7.10;99.90
50989;DHT22;37008;52.210;21.112;2022-11-04T06:47:46;7.20;99.90
50989;DHT22;37008;52.210;21.112;2022-11-04T06:50:12;7.20;99.90
50989;DHT22;37008;52.210;21.112;2022-11-04T06:52:43;7.20;99.90
50989;DHT22;37008;52.210;21.112;2022-11-04T06:55:11;7.30;99.90
50989;DHT22;37008;52.210;21.112;2022-11-04T06:57:45;7.30;99.90
50989;DHT22;37008;52.210;21.112;2022-11-04T07:00:19;7.30;99.90
50989;DHT22;37008;52.210;21.112;2022-11-04T07:02:45;7.40;99.90
50989;DHT22;37008;52.210;21.112;2022-11-04T07:05:10;7.40;99.90
50989;DHT22;37008;52.210;21.112;2022-11-04T07:07:36;7.50;99.90
50989;DHT22;37008;52.210;21.112;2022-11-04T07:10:02;7.50;99.90
50989;DHT22;37008;52.210;21.112;2022-11-04T07:12:27;7.60;99.90
50989;DHT22;37008;52.210;21.112;2022-11-04T07:14:53;7.50;99.90
50989;DHT22;37008;52.210;21.112;2022-11-04T07:17:20;7.60;99.90
50989;DHT22;37008;52.210;21.112;2022-11-04T07:19:48;7.70;99.90
50989;DHT22;37008;52.210;21.112;2022-11-04T07:22:14;7.70;99.90
50989;DHT22;37008;52.210;21.112;2022-11-04T07:24:39;7.70;99.90
50989;DHT22;37008;52.210;21.112;2022-11-04T07:27:05;7.80;99.90
50989;DHT22;37008;52.210;21.112;2022-11-04T07:29:34;7.80;99.90
50989;DHT22;37008;52.210;21.112;2022-11-04T07:32:03;7.90;99.90
50989;DHT22;37008;52.210;21.112;2022-11-04T07:34:29;7.90;99.90
50989;DHT22;37008;52.210;21.112;2022-11-04T07:36:55;7.90;99.90
50989;DHT22;37008;52.210;21.112;2022-11-04T07:39:20;8.00;99.90
50989;DHT22;37008;52.210;21.112;2022-11-04T07:41:46;8.10;99.90
50989;DHT22;37008;52.210;21.112;2022-11-04T07:44:12;8.10;99.90
50989;DHT22;37008;52.210;21.112;2022-11-04T07:46:43;8.20;99.90
50989;DHT22;37008;52.210;21.112;2022-11-04T07:49:08;8.20;99.90
50989;DHT22;37008;52.210;21.112;2022-11-04T07:51:34;8.30;99.90
50989;DHT22;37008;52.210;21.112;2022-11-04T07:54:00;8.40;99.90
50989;DHT22;37008;52.210;21.112;2022-11-04T07:56:26;8.40;99.90
50989;DHT22;37008;52.210;21.112;2022-11-04T07:58:52;8.50;99.90
50989;DHT22;37008;52.210;21.112;2022-11-04T08:01:20;8.60;99.90
50989;DHT22;37008;52.210;21.112;2022-11-04T08:03:48;8.60;99.90
50989;DHT22;37008;52.210;21.112;2022-11-04T08:06:15;8.70;99.90
50989;DHT22;37008;52.210;21.112;2022-11-04T08:08:42;8.80;99.90
50989;DHT22;37008;52.210;21.112;2022-11-04T08:11:15;8.80;99.90
50989;DHT22;37008;52.210;21.112;2022-11-04T08:13:45;8.90;99.90
50989;DHT22;37008;52.210;21.112;2022-11-04T08:16:17;8.90;99.90
50989;DHT22;37008;52.210;21.112;2022-11-04T08:18:44;9.00;99.90
50989;DHT22;37008;52.210;21.112;2022-11-04T08:21:10;9.00;99.90
50989;DHT22;37008;52.210;21.112;2022-11-04T08:23:36;9.00;99.90
50989;DHT22;37008;52.210;21.112;2022-11-04T08:26:07;9.00;99.90
50989;DHT22;37008;52.210;21.112;2022-11-04T08:28:34;9.10;99.90
50989;DHT22;37008;52.210;21.112;2022-11-04T08:31:09;9.20;99.90
50989;DHT22;37008;52.210;21.112;2022-11-04T08:33:35;9.20;99.90
50989;DHT22;37008;52.210;21.112;2022-11-04T08:36:04;9.30;99.90
50989;DHT22;37008;52.210;21.112;2022-11-04T08:38:31;9.30;99.90
50989;DHT22;37008;52.210;21.112;2022-11-04T08:40:57;9.30;99.90
50989;DHT22;37008;52.210;21.112;2022-11-04T08:43:24;9.40;99.90
50989;DHT22;37008;52.210;21.112;2022-11-04T08:45:53;9.40;99.90
50989;DHT22;37008;52.210;21.112;2022-11-04T08:48:19;9.50;99.90
50989;DHT22;37008;52.210;21.112;2022-11-04T08:50:53;9.50;99.90
50989;DHT22;37008;52.210;21.112;2022-11-04T08:53:19;9.50;99.90
50989;DHT22;37008;52.210;21.112;2022-11-04T08:55:45;9.60;99.90
50989;DHT22;37008;52.210;21.112;2022-11-04T08:58:11;9.50;99.90
50989;DHT22;37008;52.210;21.112;2022-11-04T09:00:37;9.50;99.90
50989;DHT22;37008;52.210;21.112;2022-11-04T09:03:03;9.50;99.90
50989;DHT22;37008;52.210;21.112;2022-11-04T09:05:29;9.60;99.90
50989;DHT22;37008;52.210;21.112;2022-11-04T09:07:55;9.60;99.90
50989;DHT22;37008;52.210;21.112;2022-11-04T09:10:21;9.60;99.90
50989;DHT22;37008;52.210;21.112;2022-11-04T09:12:47;9.60;99.90
50989;DHT22;37008;52.210;21.112;2022-11-04T09:15:12;9.70;99.90
50989;DHT22;37008;52.210;21.112;2022-11-04T09:17:38;9.70;99.90
50989;DHT22;37008;52.210;21.112;2022-11-04T09:20:05;9.70;99.90
50989;DHT22;37008;52.210;21.112;2022-11-04T09:22:31;9.70;99.90
50989;DHT22;37008;52.210;21.112;2022-11-04T09:24:57;9.60;99.90
50989;DHT22;37008;52.210;21.112;2022-11-04T09:27:22;9.60;99.90
50989;DHT22;37008;52.210;21.112;2022-11-04T09:29:51;9.60;99.90
50989;DHT22;37008;52.210;21.112;2022-11-04T09:32:17;9.60;99.90
50989;DHT22;37008;52.210;21.112;2022-11-04T09:34:43;9.70;99.90
50989;DHT22;37008;52.210;21.112;2022-11-04T09:37:09;9.70;99.90
50989;DHT22;37008;52.210;21.112;2022-11-04T09:39:34;9.70;99.90
50989;DHT22;37008;52.210;21.112;2022-11-04T09:47:10;9.70;99.90
50989;DHT22;37008;52.210;21.112;2022-11-04T09:49:39;9.70;99.90
50989;DHT22;37008;52.210;21.112;2022-11-04T09:52:23;9.70;99.90
50989;DHT22;37008;52.210;21.112;2022-11-04T09:57:24;9.80;99.90
50989;DHT22;37008;52.210;21.112;2022-11-04T09:59:51;9.70;99.90
50989;DHT22;37008;52.210;21.112;2022-11-04T10:05:12;9.70;99.90
50989;DHT22;37008;52.210;21.112;2022-11-04T10:07:55;9.70;99.90
50989;DHT22;37008;52.210;21.112;2022-11-04T10:13:15;9.90;99.90
50989;DHT22;37008;52.210;21.112;2022-11-04T10:26:38;10.40;99.50
50989;DHT22;37008;52.210;21.112;2022-11-04T10:29:13;10.60;99.00
50989;DHT22;37008;52.210;21.112;2022-11-04T10:31:40;10.70;98.80
50989;DHT22;37008;52.210;21.112;2022-11-04T10:34:16;10.80;98.00
50989;DHT22;37008;52.210;21.112;2022-11-04T10:36:48;10.80;97.50
50989;DHT22;37008;52.210;21.112;2022-11-04T10:39:25;10.90;97.50
50989;DHT22;37008;52.210;21.112;2022-11-04T10:41:52;10.90;97.00
50989;DHT22;37008;52.210;21.112;2022-11-04T10:44:24;10.90;96.80
50989;DHT22;37008;52.210;21.112;2022-11-04T10:49:58;10.90;95.90
50989;DHT22;37008;52.210;21.112;2022-11-04T10:52:26;11.00;95.90
50989;DHT22;37008;52.210;21.112;2022-11-04T10:54:51;11.10;95.90
50989;DHT22;37008;52.210;21.112;2022-11-04T10:57:24;11.20;95.60
50989;DHT22;37008;52.210;21.112;2022-11-04T10:59:56;11.30;95.30
50989;DHT22;37008;52.210;21.112;2022-11-04T11:07:44;11.90;93.60
50989;DHT22;37008;52.210;21.112;2022-11-04T11:10:28;12.00;93.30
50989;DHT22;37008;52.210;21.112;2022-11-04T11:13:00;12.10;92.30
50989;DHT22;37008;52.210;21.112;2022-11-04T11:18:17;12.10;91.10
50989;DHT22;37008;52.210;21.112;2022-11-04T11:20:50;12.10;90.90
50989;DHT22;37008;52.210;21.112;2022-11-04T11:26:06;12.30;90.00
50989;DHT22;37008;52.210;21.112;2022-11-04T11:28:32;12.40;89.50
50989;DHT22;37008;52.210;21.112;2022-11-04T11:31:05;12.50;89.20
50989;DHT22;37008;52.210;21.112;2022-11-04T11:33:37;12.50;88.40
50989;DHT22;37008;52.210;21.112;2022-11-04T11:36:29;12.60;87.70
50989;DHT22;37008;52.210;21.112;2022-11-04T11:39:03;12.70;86.80
50989;DHT22;37008;52.210;21.112;2022-11-04T11:41:32;12.70;85.90
50989;DHT22;37008;52.210;21.112;2022-11-04T11:44:06;12.70;85.40
50989;DHT22;37008;52.210;21.112;2022-11-04T11:46:51;12.80;85.20
50989;DHT22;37008;52.210;21.112;2022-11-04T11:49:24;12.80;84.60
50989;DHT22;37008;52.210;21.112;2022-11-04T11:51:55;12.80;83.80
50989;DHT22;37008;52.210;21.112;2022-11-04T11:54:29;12.80;83.70
50989;DHT22;37008;52.210;21.112;2022-11-04T11:57:00;12.80;82.90
50989;DHT22;37008;52.210;21.112;2022-11-04T12:04:41;12.80;82.00
50989;DHT22;37008;52.210;21.112;2022-11-04T12:07:17;12.80;82.20
50989;DHT22;37008;52.210;21.112;2022-11-04T12:10:02;12.80;82.20
50989;DHT22;37008;52.210;21.112;2022-11-04T12:12:34;12.90;82.20
50989;DHT22;37008;52.210;21.112;2022-11-04T12:21:12;13.10;80.20
50989;DHT22;37008;52.210;21.112;2022-11-04T12:23:53;13.00;79.50
50989;DHT22;37008;52.210;21.112;2022-11-04T12:26:42;12.90;79.10
50989;DHT22;37008;52.210;21.112;2022-11-04T12:32:01;12.60;79.80
50989;DHT22;37008;52.210;21.112;2022-11-04T12:42:55;12.50;79.60
50989;DHT22;37008;52.210;21.112;2022-11-04T12:47:54;12.40;79.20
50989;DHT22;37008;52.210;21.112;2022-11-04T12:53:25;12.40;79.40
50989;DHT22;37008;52.210;21.112;2022-11-04T12:56:08;12.30;79.00
50989;DHT22;37008;52.210;21.112;2022-11-04T13:01:34;12.20;78.90
50989;DHT22;37008;52.210;21.112;2022-11-04T13:04:21;12.10;79.40
50989;DHT22;37008;52.210;21.112;2022-11-04T13:07:03;12.00;79.90
50989;DHT22;37008;52.210;21.112;2022-11-04T13:09:52;11.90;80.10
50989;DHT22;37008;52.210;21.112;2022-11-04T13:12:24;11.80;80.30
50989;DHT22;37008;52.210;21.112;2022-11-04T13:15:16;11.70;80.60
50989;DHT22;37008;52.210;21.112;2022-11-04T13:17:45;11.70;81.00
50989;DHT22;37008;52.210;21.112;2022-11-04T13:22:43;11.60;81.60
50989;DHT22;37008;52.210;21.112;2022-11-04T13:25:26;11.50;82.00
50989;DHT22;37008;52.210;21.112;2022-11-04T13:27:53;11.50;82.50
50989;DHT22;37008;52.210;21.112;2022-11-04T13:33:37;11.40;83.00
50989;DHT22;37008;52.210;21.112;2022-11-04T13:36:18;11.40;83.30
50989;DHT22;37008;52.210;21.112;2022-11-04T13:38:52;11.40;83.40
50989;DHT22;37008;52.210;21.112;2022-11-04T13:43:58;11.30;83.90
50989;DHT22;37008;52.210;21.112;2022-11-04T13:46:32;11.30;84.10
50989;DHT22;37008;52.210;21.112;2022-11-04T13:51:42;11.20;84.70
50989;DHT22;37008;52.210;21.112;2022-11-04T13:54:32;11.20;84.90
50989;DHT22;37008;52.210;21.112;2022-11-04T13:59:30;11.00;85.40
50989;DHT22;37008;52.210;21.112;2022-11-04T14:04:38;10.90;86.30
50989;DHT22;37008;52.210;21.112;2022-11-04T14:07:05;10.90;86.50
50989;DHT22;37008;52.210;21.112;2022-11-04T14:09:48;10.80;86.70
50989;DHT22;37008;52.210;21.112;2022-11-04T14:20:22;10.50;87.70
50989;DHT22;37008;52.210;21.112;2022-11-04T14:22:51;10.40;88.10
50989;DHT22;37008;52.210;21.112;2022-11-04T14:25:40;10.40;88.60
50989;DHT22;37008;52.210;21.112;2022-11-04T14:30:51;10.20;89.20
50989;DHT22;37008;52.210;21.112;2022-11-04T14:33:40;10.10;89.70
50989;DHT22;37008;52.210;21.112;2022-11-04T14:38:39;10.00;90.20
50989;DHT22;37008;52.210;21.112;2022-11-04T14:41:28;9.90;90.40
50989;DHT22;37008;52.210;21.112;2022-11-04T14:43:56;9.80;90.80
50989;DHT22;37008;52.210;21.112;2022-11-04T14:46:31;9.70;90.90
50989;DHT22;37008;52.210;21.112;2022-11-04T14:48:58;9.70;91.10
50989;DHT22;37008;52.210;21.112;2022-11-04T14:51:32;9.70;91.40
50989;DHT22;37008;52.210;21.112;2022-11-04T14:54:16;9.60;91.60
50989;DHT22;37008;52.210;21.112;2022-11-04T14:56:44;9.60;92.00
50989;DHT22;37008;52.210;21.112;2022-11-04T14:59:19;9.50;92.20
50989;DHT22;37008;52.210;21.112;2022-11-04T15:01:45;9.50;92.50
50989;DHT22;37008;52.210;21.112;2022-11-04T15:04:22;9.50;92.90
50989;DHT22;37008;52.210;21.112;2022-11-04T15:06:58;9.50;93.10
50989;DHT22;37008;52.210;21.112;2022-11-04T15:09:34;9.50;93.30
50989;DHT22;37008;52.210;21.112;2022-11-04T15:12:12;9.50;93.80
50989;DHT22;37008;52.210;21.112;2022-11-04T15:14:58;9.40;94.10
50989;DHT22;37008;52.210;21.112;2022-11-04T15:17:28;9.30;94.30
50989;DHT22;37008;52.210;21.112;2022-11-04T15:19:57;9.40;94.60
50989;DHT22;37008;52.210;21.112;2022-11-04T15:22:24;9.40;94.90
50989;DHT22;37008;52.210;21.112;2022-11-04T15:24:52;9.40;95.40
50989;DHT22;37008;52.210;21.112;2022-11-04T15:27:24;9.40;95.60
50989;DHT22;37008;52.210;21.112;2022-11-04T15:30:00;9.40;95.80
50989;DHT22;37008;52.210;21.112;2022-11-04T15:32:27;9.50;96.20
50989;DHT22;37008;52.210;21.112;2022-11-04T15:34:53;9.50;96.50
50989;DHT22;37008;52.210;21.112;2022-11-04T15:37:21;9.50;96.70
50989;DHT22;37008;52.210;21.112;2022-11-04T15:39:51;9.60;96.90
50989;DHT22;37008;52.210;21.112;2022-11-04T15:42:25;9.60;97.10
50989;DHT22;37008;52.210;21.112;2022-11-04T15:45:31;9.60;97.40
50989;DHT22;37008;52.210;21.112;2022-11-04T15:49:19;9.60;97.60
50989;DHT22;37008;52.210;21.112;2022-11-04T15:51:20;9.60;98.00
50989;DHT22;37008;52.210;21.112;2022-11-04T15:56:31;9.60;98.60
50989;DHT22;37008;52.210;21.112;2022-11-04T15:58:59;9.60;99.00
50989;DHT22;37008;52.210;21.112;2022-11-04T16:01:25;9.60;99.20
50989;DHT22;37008;52.210;21.112;2022-11-04T16:03:58;9.60;99.40
50989;DHT22;37008;52.210;21.112;2022-11-04T16:06:42;9.60;99.70
50989;DHT22;37008;52.210;21.112;2022-11-04T16:11:35;9.70;99.90
50989;DHT22;37008;52.210;21.112;2022-11-04T16:14:18;9.70;99.90
50989;DHT22;37008;52.210;21.112;2022-11-04T16:16:47;9.70;99.90
50989;DHT22;37008;52.210;21.112;2022-11-04T16:19:19;9.70;99.90
50989;DHT22;37008;52.210;21.112;2022-11-04T16:21:47;9.70;99.90
50989;DHT22;37008;52.210;21.112;2022-11-04T16:24:22;9.70;99.90
50989;DHT22;37008;52.210;21.112;2022-11-04T16:26:49;9.70;99.90
50989;DHT22;37008;52.210;21.112;2022-11-04T16:29:25;9.70;99.90
50989;DHT22;37008;52.210;21.112;2022-11-04T16:34:33;9.70;99.90
50989;DHT22;37008;52.210;21.112;2022-11-04T16:37:01;9.70;99.90
50989;DHT22;37008;52.210;21.112;2022-11-04T16:39:27;9.80;99.90
50989;DHT22;37008;52.210;21.112;2022-11-04T16:41:53;9.70;99.90
50989;DHT22;37008;52.210;21.112;2022-11-04T16:44:21;9.70;99.90
50989;DHT22;37008;52.210;21.112;2022-11-04T16:46:47;9.70;99.90
50989;DHT22;37008;52.210;21.112;2022-11-04T16:49:15;9.70;99.90
50989;DHT22;37008;52.210;21.112;2022-11-04T16:51:41;9.70;99.90
50989;DHT22;37008;52.210;21.112;2022-11-04T16:54:06;9.70;99.90
50989;DHT22;37008;52.210;21.112;2022-11-04T16:56:33;9.60;99.90
50989;DHT22;37008;52.210;21.112;2022-11-04T16:58:59;9.70;99.90
50989;DHT22;37008;52.210;21.112;2022-11-04T17:01:24;9.70;99.90
50989;DHT22;37008;52.210;21.112;2022-11-04T17:03:50;9.70;99.90
50989;DHT22;37008;52.210;21.112;2022-11-04T17:06:17;9.70;99.90
50989;DHT22;37008;52.210;21.112;2022-11-04T17:08:43;9.70;99.90
50989;DHT22;37008;52.210;21.112;2022-11-04T17:11:09;9.70;99.90
50989;DHT22;37008;52.210;21.112;2022-11-04T17:13:35;9.70;99.90
50989;DHT22;37008;52.210;21.112;2022-11-04T17:16:01;9.70;99.90
50989;DHT22;37008;52.210;21.112;2022-11-04T17:18:29;9.70;99.90
50989;DHT22;37008;52.210;21.112;2022-11-04T17:20:55;9.60;99.90
50989;DHT22;37008;52.210;21.112;2022-11-04T17:23:21;9.60;99.90
50989;DHT22;37008;52.210;21.112;2022-11-04T17:25:47;9.60;99.90
50989;DHT22;37008;52.210;21.112;2022-11-04T17:28:13;9.60;99.90
50989;DHT22;37008;52.210;21.112;2022-11-04T17:30:43;9.60;99.90
50989;DHT22;37008;52.210;21.112;2022-11-04T17:33:13;9.60;99.90
50989;DHT22;37008;52.210;21.112;2022-11-04T17:35:41;9.60;99.90
50989;DHT22;37008;52.210;21.112;2022-11-04T17:38:09;9.50;99.90
50989;DHT22;37008;52.210;21.112;2022-11-04T17:40:35;9.50;99.90
50989;DHT22;37008;52.210;21.112;2022-11-04T17:43:21;9.50;99.90
50989;DHT22;37008;52.210;21.112;2022-11-04T17:46:05;9.40;99.90
50989;DHT22;37008;52.210;21.112;2022-11-04T17:48:49;9.40;99.90
50989;DHT22;37008;52.210;21.112;2022-11-04T17:51:15;9.40;99.90
50989;DHT22;37008;52.210;21.112;2022-11-04T17:53:40;9.40;99.90
50989;DHT22;37008;52.210;21.112;2022-11-04T17:56:16;9.40;99.90
50989;DHT22;37008;52.210;21.112;2022-11-04T17:58:42;9.40;99.90
50989;DHT22;37008;52.210;21.112;2022-11-04T18:01:10;9.30;99.90
50989;DHT22;37008;52.210;21.112;2022-11-04T18:03:36;9.30;99.90
50989;DHT22;37008;52.210;21.112;2022-11-04T18:06:02;9.30;99.90
50989;DHT22;37008;52.210;21.112;2022-11-04T18:08:29;9.30;99.90
50989;DHT22;37008;52.210;21.112;2022-11-04T18:10:58;9.30;99.90
50989;DHT22;37008;52.210;21.112;2022-11-04T18:13:24;9.30;99.90
50989;DHT22;37008;52.210;21.112;2022-11-04T18:15:50;9.20;99.90